If you wish to contribute or participate in the discussions about articles you are invited to join SKYbrary as a registered user

 Actions

Brač Airport

From SKYbrary Wiki

LDSB
Airport
ICAO: LDSB – IATA: BWK
Summary
Name Brač Airport
Region Europe
Territory Croatia HR.gif
Location Bol, Brač
Serving Brač
Elevation 542.849 m <br />1,781 ft542.849 m <br />
Coordinates 43° 17' 8.99" N, 16° 40' 46.99" E
Runways
Designator Length Width Surface ROPS
4/22 1440 m4,724.409 ft <br /> 30 m98.425 ft <br /> ASP /


METAR
Observation LDSB 261030Z 33005KT 260V040 CAVOK 16/07 Q1021
Station Brac
Date/Time 26 October 2021 10:30:00
Wind direction 330°
Wind speed 05 kts
Lowest cloud amount clouds and visibility OK
Temperature 16°C
Dew point 7°C
Humidity 55%
QNH 1021 hPa
Weather condition n/a

Brač Airport is an airport on the Croatian island of Brač, close to the town of Bol, after which it is sometimes also named informally.

Climatology

Warm mediterranean climate (Köppen climate classification Csa)

Maps

Terrain

Loading map...

Airport Layout

Loading map...


Accidents & Serious Incidents at or in vicinity of LDSB

None on SKYbrary